Accueil
METAR-TAF:

METAR-TAF

Aéroports :

Aéroport de Saragosse

Saragosse, Espagne

latitude: 41-40N, longitude: 001-01W, altitude: 263 m

Observation

Le bulletin a été fait il y a 12 minutes, à 06:00 UTC
Vent 3 kt de sud/sud-est
Température 17°C
Humidité 88%
Pression 1017 hPa
Visibilité 10 km ou plus
Quelques nuages à une hauteur de 4000 ft

METAR: LEZG 240600Z 16003KT 9999 FEW040 17/15 Q1017

Heure: 08:12 (06:12 UTC)

Prévision

Le bulletin a été fait il y a 1 heure et 12 minutes, à 05:00 UTC
Prévision valable du 24 à 06 UTC au 25 à 06 UTC
Vent 7 kt de est/sud-est
Visibilité 10 km ou plus
Nuages épars à une hauteur de 2000 ft
Probabilité 30% :
Temporairement
du 24 à 14 UTC au 24 à 20 UTC
Nuages épars à une hauteur de 4000 ft
Quelques nuages à une hauteur de 6000 ft, Cumulonimbus.
orage, pluie

TAF: LEZG 240500Z 2406/2506 11007KT 9999 SCT020 TX31/2414Z TN16/2406Z PROB30 TEMPO 2414/2420 TSRA SCT040 FEW060CB

Observations et prévisions météorologiques de plus de 4000 aéroports (messages METAR et TAF).

Les stations disponibles sont représentées par des disques jaunes et rouges sur la carte.

Passer la souris dessus pour voir le nom de la station.

Cliquer dessus pour voir les observations et prévisions météorologiques.

Pour changer de carte: cliquez sur les boutons verts avec une croix noire pour zoomer, sur le bouton vert avec un tiret pour effectuer un zoom arrière, ou sur les flèches vertes pour les cartes adjacentes.


METAR-TAF: